createdAt,value
2023-05-12T00:02:19.114Z,4.97
2023-05-12T00:04:46.523Z,5.07
2023-05-12T00:07:13.866Z,4.93
2023-05-12T00:09:43.206Z,4.90
2023-05-12T00:12:11.214Z,5.53
2023-05-12T00:14:39.674Z,4.97
2023-05-12T00:17:07.203Z,4.73
2023-05-12T00:19:35.912Z,4.77
2023-05-12T00:22:03.617Z,9.23
2023-05-12T00:24:31.333Z,16.67
2023-05-12T00:26:59.543Z,19.97
2023-05-12T00:29:27.460Z,6.23
2023-05-12T00:31:56.645Z,4.73
2023-05-12T00:34:23.920Z,5.00
2023-05-12T00:36:51.736Z,5.83
2023-05-12T00:39:19.081Z,4.53
2023-05-12T00:41:48.301Z,4.90
2023-05-12T00:44:15.980Z,4.70
2023-05-12T00:46:43.379Z,4.73
2023-05-12T00:49:10.785Z,4.10
2023-05-12T00:51:38.216Z,4.77
2023-05-12T00:54:05.528Z,4.47
2023-05-12T00:56:39.643Z,4.57
2023-05-12T00:59:10.061Z,4.70
2023-05-12T01:01:38.990Z,4.67
2023-05-12T01:04:07.124Z,4.60
2023-05-12T01:06:39.820Z,5.13
2023-05-12T01:09:07.285Z,5.00
2023-05-12T01:11:34.688Z,5.93
2023-05-12T01:14:02.414Z,10.37
2023-05-12T01:16:32.774Z,10.30
2023-05-12T01:19:01.120Z,7.37
2023-05-12T01:21:28.363Z,5.10
2023-05-12T01:23:59.065Z,5.80
2023-05-12T01:26:26.859Z,5.50
2023-05-12T01:28:55.935Z,4.83
2023-05-12T01:31:24.917Z,5.03
2023-05-12T01:33:54.583Z,4.47
2023-05-12T01:36:23.180Z,4.97
2023-05-12T01:38:50.623Z,4.83
2023-05-12T01:41:17.957Z,5.10
2023-05-12T01:43:45.273Z,5.13
2023-05-12T01:46:13.915Z,5.00
2023-05-12T01:48:42.528Z,4.90
2023-05-12T01:51:10.556Z,5.30
2023-05-12T01:53:37.822Z,5.00
2023-05-12T01:56:05.111Z,4.80
2023-05-12T01:58:32.340Z,5.53
2023-05-12T02:00:59.832Z,21.50
2023-05-12T02:03:27.666Z,6.70
2023-05-12T02:05:55.825Z,5.03
2023-05-12T02:08:24.112Z,5.00
2023-05-12T02:10:51.364Z,4.47
2023-05-12T02:13:18.701Z,5.23
2023-05-12T02:15:45.914Z,4.97
2023-05-12T02:18:13.983Z,5.10
2023-05-12T02:20:42.781Z,4.57
2023-05-12T02:23:10.125Z,4.33
2023-05-12T02:25:37.380Z,4.70
2023-05-12T02:28:04.885Z,4.30
2023-05-12T02:30:32.106Z,4.50
2023-05-12T02:32:59.447Z,4.93
2023-05-12T02:35:26.714Z,4.43
2023-05-12T02:37:54.140Z,4.47
2023-05-12T02:40:23.964Z,5.10
2023-05-12T02:42:51.199Z,5.27
2023-05-12T02:45:19.288Z,5.63
2023-05-12T02:47:46.716Z,5.50
2023-05-12T02:50:15.914Z,6.40
2023-05-12T02:52:44.659Z,5.60
2023-05-12T02:55:13.069Z,6.07
2023-05-12T02:57:40.518Z,6.00
2023-05-12T03:00:08.459Z,6.87
2023-05-12T03:02:39.917Z,7.43
2023-05-12T03:05:10.441Z,5.57
2023-05-12T03:07:38.107Z,4.87
2023-05-12T03:10:06.648Z,4.87
2023-05-12T03:12:33.878Z,4.60
2023-05-12T03:15:01.116Z,4.70
2023-05-12T03:17:28.388Z,4.50
2023-05-12T03:19:55.682Z,4.63
2023-05-12T03:22:23.066Z,4.70
2023-05-12T03:24:50.714Z,4.37
2023-05-12T03:27:18.909Z,4.70
2023-05-12T03:29:46.249Z,4.70
2023-05-12T03:32:14.164Z,4.40
2023-05-12T03:34:41.448Z,4.43
2023-05-12T03:37:09.809Z,4.60
2023-05-12T03:39:37.578Z,4.50
2023-05-12T03:42:05.147Z,4.63
2023-05-12T03:44:32.413Z,4.40
2023-05-12T03:46:59.794Z,4.50
2023-05-12T03:49:27.149Z,4.20
2023-05-12T03:51:54.428Z,4.50
2023-05-12T03:54:21.896Z,5.03
2023-05-12T03:56:50.111Z,4.93
2023-05-12T03:59:17.631Z,5.40
2023-05-12T04:01:44.844Z,6.30
2023-05-12T04:04:12.141Z,12.83
2023-05-12T04:06:39.522Z,6.50
2023-05-12T04:09:07.167Z,23.70
2023-05-12T04:11:35.285Z,10.23
2023-05-12T04:14:03.348Z,5.77
2023-05-12T04:16:30.724Z,5.30
2023-05-12T04:18:58.073Z,7.10
2023-05-12T04:21:25.596Z,6.47
2023-05-12T04:23:53.093Z,6.30
2023-05-12T04:26:21.332Z,6.27
2023-05-12T04:28:49.049Z,5.60
2023-05-12T04:31:16.576Z,5.90
2023-05-12T04:33:45.795Z,5.40
2023-05-12T04:36:14.379Z,5.53
2023-05-12T04:38:42.064Z,6.10
2023-05-12T04:41:11.245Z,6.07
2023-05-12T04:46:10.768Z,10.33
2023-05-12T04:48:42.099Z,12.33
2023-05-12T04:51:09.397Z,12.53
2023-05-12T04:53:36.715Z,8.00
2023-05-12T04:56:04.245Z,6.70
2023-05-12T04:58:31.669Z,6.93
2023-05-12T05:00:59.550Z,6.70
2023-05-12T05:03:27.536Z,6.03
2023-05-12T05:05:55.096Z,6.30
2023-05-12T05:08:22.431Z,5.93
2023-05-12T05:10:49.677Z,6.20
2023-05-12T05:13:16.956Z,6.03
2023-05-12T05:15:54.396Z,7.03
2023-05-12T05:18:24.250Z,6.50
2023-05-12T05:20:57.689Z,6.90
2023-05-12T05:23:26.097Z,6.50
2023-05-12T05:25:53.750Z,7.20
2023-05-12T05:28:21.329Z,6.90
2023-05-12T05:30:49.436Z,7.30
2023-05-12T05:33:17.955Z,7.60
2023-05-12T05:35:46.795Z,7.93
2023-05-12T05:38:14.050Z,8.67
2023-05-12T05:40:52.167Z,7.10
2023-05-12T05:43:20.067Z,7.40
2023-05-12T05:45:51.017Z,7.30
2023-05-12T05:48:19.100Z,7.27
2023-05-12T05:50:47.607Z,7.20
2023-05-12T05:53:15.214Z,7.50
2023-05-12T05:55:42.908Z,7.27
2023-05-12T05:58:10.253Z,7.03
2023-05-12T06:00:39.450Z,6.70
2023-05-12T06:03:08.035Z,6.53
2023-05-12T06:05:36.033Z,5.80
2023-05-12T06:08:06.206Z,6.40
2023-05-12T06:10:33.630Z,6.60
2023-05-12T06:13:01.113Z,5.90
2023-05-12T06:15:29.940Z,6.17
2023-05-12T06:17:57.459Z,6.43
2023-05-12T06:20:25.326Z,6.13
2023-05-12T06:22:52.714Z,5.93
2023-05-12T06:25:20.456Z,5.70
2023-05-12T06:27:48.061Z,6.43
2023-05-12T06:30:16.510Z,6.23
2023-05-12T06:32:43.929Z,7.40
2023-05-12T06:35:11.779Z,9.03
2023-05-12T06:37:39.223Z,5.50
2023-05-12T06:40:07.924Z,5.20
2023-05-12T06:42:35.461Z,6.87
2023-05-12T06:45:03.647Z,5.43
2023-05-12T06:47:30.897Z,5.17
2023-05-12T06:49:59.201Z,5.70
2023-05-12T06:52:26.754Z,7.53
2023-05-12T06:54:54.008Z,4.97
2023-05-12T06:57:21.206Z,5.40
2023-05-12T06:59:48.464Z,5.70
2023-05-12T07:02:17.024Z,3.20
2023-05-12T07:04:44.300Z,3.80
2023-05-12T07:07:11.650Z,3.55
2023-05-12T07:09:41.512Z,3.63
2023-05-12T07:12:09.431Z,2.00
2023-05-12T07:14:36.765Z,2.75
2023-05-12T07:17:04.217Z,2.20
2023-05-12T07:19:31.505Z,8.10
2023-05-12T07:21:59.036Z,3.08
2023-05-12T07:24:27.951Z,1.65
2023-05-12T07:26:55.249Z,1.95
2023-05-12T07:29:22.587Z,3.53
2023-05-12T07:31:50.196Z,2.42
2023-05-12T07:34:18.629Z,1.70
2023-05-12T07:36:46.022Z,1.80
2023-05-12T07:39:15.141Z,1.85
2023-05-12T07:41:42.507Z,1.50
2023-05-12T07:44:09.760Z,1.70
2023-05-12T07:46:37.316Z,1.92
2023-05-12T07:49:04.666Z,2.00
2023-05-12T07:51:31.981Z,1.80
2023-05-12T07:54:00.961Z,1.60
2023-05-12T07:56:28.621Z,2.40
2023-05-12T07:58:56.276Z,14.15
2023-05-12T08:01:24.252Z,1.58
2023-05-12T08:03:51.830Z,1.92
2023-05-12T08:06:19.590Z,2.67
2023-05-12T08:08:46.940Z,1.80
2023-05-12T08:11:14.375Z,1.67
2023-05-12T08:13:41.684Z,1.90
2023-05-12T08:16:09.035Z,2.55
2023-05-12T08:18:38.448Z,1.80
2023-05-12T08:21:06.714Z,1.77
2023-05-12T08:23:35.760Z,1.65
2023-05-12T08:26:02.973Z,1.70
2023-05-12T08:28:31.003Z,2.05
2023-05-12T08:30:59.038Z,1.73
2023-05-12T08:33:26.341Z,1.60
2023-05-12T08:35:55.339Z,1.73
2023-05-12T08:38:24.822Z,2.00
2023-05-12T08:41:07.609Z,1.95
2023-05-12T08:44:01.059Z,2.47
2023-05-12T08:46:32.386Z,1.90
2023-05-12T08:49:00.274Z,1.75
2023-05-12T08:51:28.977Z,5.38
2023-05-12T08:53:56.839Z,2.53
2023-05-12T08:58:55.389Z,2.00
2023-05-12T09:01:23.913Z,2.30
2023-05-12T09:03:53.076Z,1.97
2023-05-12T09:06:20.528Z,2.20
2023-05-12T09:08:47.840Z,2.50
2023-05-12T09:11:15.450Z,2.03
2023-05-12T09:14:02.856Z,2.30
2023-05-12T09:16:31.457Z,2.20
2023-05-12T09:18:59.599Z,2.30
2023-05-12T09:21:27.464Z,1.92
2023-05-12T09:23:57.897Z,2.22
2023-05-12T09:26:26.088Z,2.28
2023-05-12T09:28:54.218Z,2.40
2023-05-12T09:31:26.125Z,3.78
2023-05-12T09:33:53.456Z,2.50
2023-05-12T09:36:24.806Z,2.13
2023-05-12T09:39:05.325Z,2.20
2023-05-12T09:41:36.121Z,2.20
2023-05-12T09:44:03.621Z,3.53
2023-05-12T09:46:31.264Z,2.20
2023-05-12T09:48:59.008Z,2.00
2023-05-12T09:51:29.402Z,3.67
2023-05-12T09:53:56.875Z,2.60
2023-05-12T09:56:25.903Z,2.80
2023-05-12T09:58:54.840Z,2.50
2023-05-12T10:01:23.884Z,2.47
2023-05-12T10:03:55.863Z,2.83
2023-05-12T10:06:31.770Z,2.85
2023-05-12T10:08:59.286Z,2.60
2023-05-12T10:11:26.855Z,2.20
2023-05-12T10:13:54.105Z,2.30
2023-05-12T10:16:22.236Z,2.53
2023-05-12T10:18:50.478Z,2.65
2023-05-12T10:21:17.873Z,2.78
2023-05-12T10:23:45.811Z,2.97
2023-05-12T10:26:13.834Z,2.55
2023-05-12T10:28:43.021Z,2.03
2023-05-12T10:31:12.178Z,1.80
2023-05-12T10:33:39.527Z,2.37
2023-05-12T10:36:17.160Z,2.07
2023-05-12T10:38:44.650Z,1.50
2023-05-12T10:41:12.237Z,1.52
2023-05-12T10:43:45.197Z,1.70
2023-05-12T10:46:19.652Z,1.77
2023-05-12T10:48:54.962Z,1.80
2023-05-12T10:51:23.956Z,1.83
2023-05-12T10:53:57.278Z,1.88
2023-05-12T10:56:25.803Z,1.42
2023-05-12T10:59:13.699Z,1.95
2023-05-12T11:01:43.164Z,2.10
2023-05-12T11:04:15.998Z,2.05
2023-05-12T11:06:45.181Z,3.10
2023-05-12T11:09:13.584Z,1.98
2023-05-12T11:11:41.192Z,1.90
2023-05-12T11:14:09.738Z,2.35
2023-05-12T11:16:42.860Z,2.45
2023-05-12T11:19:10.379Z,2.25
2023-05-12T11:21:38.181Z,2.90
2023-05-12T11:24:06.359Z,3.40
2023-05-12T11:26:34.695Z,3.33
2023-05-12T11:29:04.863Z,3.50
2023-05-12T11:31:32.262Z,4.18
2023-05-12T11:34:13.047Z,3.92
2023-05-12T11:36:42.428Z,3.40
2023-05-12T11:39:20.814Z,3.22
2023-05-12T11:41:49.328Z,2.70
2023-05-12T11:44:18.640Z,2.85
2023-05-12T11:46:59.142Z,2.50
2023-05-12T11:49:27.196Z,2.45
2023-05-12T11:51:55.090Z,2.58
2023-05-12T11:54:23.350Z,2.30
2023-05-12T11:56:51.856Z,2.22
2023-05-12T11:59:35.154Z,2.10
2023-05-12T12:02:03.558Z,1.75
2023-05-12T12:04:41.897Z,2.83
2023-05-12T12:07:09.826Z,2.20
2023-05-12T12:09:41.186Z,1.70
2023-05-12T12:12:11.629Z,1.88
2023-05-12T12:14:41.426Z,2.20
2023-05-12T12:17:08.788Z,2.30
2023-05-12T12:19:36.029Z,4.57
2023-05-12T12:22:03.501Z,1.23
2023-05-12T12:24:31.207Z,1.70
2023-05-12T12:26:58.551Z,2.00
2023-05-12T12:29:28.424Z,1.60
2023-05-12T12:31:55.955Z,1.35
2023-05-12T12:34:23.244Z,1.50
2023-05-12T12:36:50.544Z,1.40
2023-05-12T12:39:19.833Z,1.13
2023-05-12T12:41:48.239Z,1.63
2023-05-12T12:44:15.787Z,1.40
2023-05-12T12:46:43.078Z,1.33
2023-05-12T12:49:10.437Z,1.80
2023-05-12T12:51:45.506Z,0.90
2023-05-12T12:54:14.723Z,8.10
2023-05-12T12:56:42.144Z,1.17
2023-05-12T12:59:09.499Z,1.42
2023-05-12T13:01:36.798Z,1.05
2023-05-12T13:04:05.027Z,1.20
2023-05-12T13:06:32.324Z,1.25
2023-05-12T13:08:59.883Z,1.42
2023-05-12T13:11:27.548Z,1.70
2023-05-12T13:13:54.832Z,1.27
2023-05-12T13:16:22.377Z,1.60
2023-05-12T13:18:49.872Z,1.50
2023-05-12T13:21:18.825Z,2.17
2023-05-12T13:23:46.135Z,1.80
2023-05-12T13:26:13.818Z,2.13
2023-05-12T13:28:41.071Z,2.65
2023-05-12T13:31:08.427Z,2.05
2023-05-12T13:33:35.721Z,2.60
2023-05-12T13:36:03.500Z,2.00
2023-05-12T13:38:31.072Z,2.25
2023-05-12T13:40:58.448Z,2.00
2023-05-12T13:43:25.915Z,2.10
2023-05-12T13:45:53.705Z,2.33
2023-05-12T13:48:21.613Z,2.42
2023-05-12T13:50:49.030Z,2.50
2023-05-12T13:53:16.665Z,2.25
2023-05-12T13:55:45.219Z,2.50
2023-05-12T13:58:12.937Z,2.20
2023-05-12T14:00:41.518Z,2.22
2023-05-12T14:03:08.841Z,1.98
2023-05-12T14:05:36.513Z,1.90
2023-05-12T14:08:04.250Z,1.90
2023-05-12T14:10:32.997Z,1.83
2023-05-12T14:13:01.272Z,1.92
2023-05-12T14:15:40.446Z,2.10
2023-05-12T14:18:15.143Z,1.88
2023-05-12T14:20:42.610Z,1.70
2023-05-12T14:23:10.038Z,2.50
2023-05-12T14:25:37.590Z,2.05
2023-05-12T14:28:05.952Z,2.00
2023-05-12T14:30:36.055Z,2.15
2023-05-12T14:33:04.747Z,1.90
2023-05-12T14:35:32.103Z,2.30
2023-05-12T14:37:59.455Z,2.50
2023-05-12T14:40:27.482Z,2.08
2023-05-12T14:42:55.859Z,1.67
2023-05-12T14:45:27.092Z,1.80
2023-05-12T14:47:55.617Z,1.75
2023-05-12T14:50:24.055Z,2.13
2023-05-12T14:52:52.594Z,1.70
2023-05-12T14:55:20.482Z,1.45
2023-05-12T14:57:49.587Z,1.70
2023-05-12T15:00:17.833Z,1.50
2023-05-12T15:02:46.615Z,1.50
2023-05-12T15:05:15.029Z,1.42
2023-05-12T15:07:43.532Z,1.38
2023-05-12T15:10:11.147Z,1.30
2023-05-12T15:12:38.547Z,1.30
2023-05-12T15:15:08.775Z,1.00
2023-05-12T15:17:36.268Z,1.00
2023-05-12T15:20:04.492Z,0.93
2023-05-12T15:22:32.388Z,1.10
2023-05-12T15:24:59.677Z,1.00
2023-05-12T15:27:27.287Z,0.90
2023-05-12T15:29:55.519Z,1.23
2023-05-12T15:32:23.183Z,1.10
2023-05-12T15:34:50.853Z,1.20
2023-05-12T15:37:18.342Z,1.20
2023-05-12T15:39:46.050Z,1.50
2023-05-12T15:42:14.651Z,1.65
2023-05-12T15:44:46.809Z,1.30
2023-05-12T15:47:26.466Z,1.65
2023-05-12T15:49:54.365Z,1.73
2023-05-12T15:52:21.747Z,2.13
2023-05-12T15:54:49.400Z,2.28
2023-05-12T15:57:16.915Z,2.30
2023-05-12T15:59:44.327Z,2.30
2023-05-12T16:02:12.092Z,2.38
2023-05-12T16:04:39.520Z,3.08
2023-05-12T16:07:07.200Z,2.92
2023-05-12T16:09:34.675Z,3.17
2023-05-12T16:12:01.911Z,2.85
2023-05-12T16:14:29.219Z,2.63
2023-05-12T16:16:56.625Z,2.55
2023-05-12T16:19:24.638Z,3.35
2023-05-12T16:21:54.528Z,2.70
2023-05-12T16:24:22.487Z,3.35
2023-05-12T16:26:49.868Z,3.13
2023-05-12T16:29:17.992Z,3.15
2023-05-12T16:31:46.828Z,2.90
2023-05-12T16:34:35.393Z,2.70
2023-05-12T16:37:02.971Z,2.40
2023-05-12T16:39:32.411Z,3.13
2023-05-12T16:42:03.122Z,2.90
2023-05-12T16:44:30.630Z,2.85
2023-05-12T16:47:16.578Z,3.40
2023-05-12T16:49:44.076Z,3.72
2023-05-12T16:52:12.502Z,3.70
2023-05-12T16:54:40.069Z,4.32
2023-05-12T16:57:11.530Z,4.40
2023-05-12T16:59:39.919Z,4.50
2023-05-12T17:02:08.441Z,3.85
2023-05-12T17:04:36.253Z,4.50
2023-05-12T17:07:03.538Z,4.43
2023-05-12T17:09:34.228Z,4.68
2023-05-12T17:12:01.639Z,4.75
2023-05-12T17:14:44.344Z,5.60
2023-05-12T17:17:13.566Z,5.32
2023-05-12T17:19:42.092Z,5.40
2023-05-12T17:22:09.568Z,5.43
2023-05-12T17:24:37.465Z,7.90
2023-05-12T17:27:09.337Z,6.22
2023-05-12T17:29:38.800Z,6.65
2023-05-12T17:32:09.959Z,6.88
2023-05-12T17:34:38.901Z,8.38
2023-05-12T17:37:12.762Z,5.43
2023-05-12T17:39:42.126Z,6.50
2023-05-12T17:42:10.705Z,6.45
2023-05-12T17:44:52.918Z,11.35
2023-05-12T17:50:03.905Z,6.65
2023-05-12T17:52:37.263Z,8.48
2023-05-12T17:57:47.094Z,8.68
2023-05-12T18:00:15.812Z,21.93
2023-05-12T18:02:48.110Z,12.20
2023-05-12T18:05:17.889Z,7.27
2023-05-12T18:07:45.984Z,8.27
2023-05-12T18:10:13.542Z,10.63
2023-05-12T18:12:41.424Z,8.05
2023-05-12T18:15:14.077Z,5.83
2023-05-12T18:18:12.599Z,5.80
2023-05-12T18:20:44.224Z,13.60
2023-05-12T18:23:33.823Z,14.13
2023-05-12T18:32:05.523Z,14.73
2023-05-12T18:40:01.776Z,9.93
2023-05-12T18:42:29.268Z,6.77
2023-05-12T18:44:56.860Z,9.27
2023-05-12T18:47:24.244Z,9.80
2023-05-12T18:55:27.074Z,6.40
2023-05-12T18:57:56.551Z,6.77
2023-05-12T19:03:10.020Z,6.53
2023-05-12T19:05:56.558Z,6.70
2023-05-12T19:08:32.753Z,6.73
2023-05-12T19:11:11.454Z,6.33
2023-05-12T19:19:10.468Z,6.97
2023-05-12T19:21:38.389Z,6.90
2023-05-12T19:33:17.406Z,7.63
2023-05-12T19:35:44.864Z,7.23
2023-05-12T19:38:12.311Z,6.73
2023-05-12T19:40:39.691Z,6.47
2023-05-12T19:43:11.853Z,6.53
2023-05-12T19:45:40.577Z,6.50
2023-05-12T19:48:10.679Z,6.17
2023-05-12T19:50:44.850Z,7.73
2023-05-12T19:55:58.206Z,7.33
2023-05-12T20:01:10.687Z,6.43
2023-05-12T20:03:43.387Z,6.73
2023-05-12T20:06:12.552Z,9.70
2023-05-12T20:08:40.142Z,43.43
2023-05-12T20:11:15.737Z,22.93
2023-05-12T20:13:45.956Z,8.07
2023-05-12T20:21:40.735Z,6.90
2023-05-12T20:26:59.397Z,7.03
2023-05-12T20:29:29.066Z,8.53
2023-05-12T20:32:06.472Z,7.10
2023-05-12T20:34:34.047Z,6.83
2023-05-12T20:37:01.363Z,6.73
2023-05-12T20:39:33.863Z,7.03
2023-05-12T20:47:34.996Z,6.40
2023-05-12T20:52:57.873Z,6.63
2023-05-12T20:55:29.390Z,6.73
2023-05-12T20:57:58.890Z,6.60
2023-05-12T21:00:33.116Z,7.10
2023-05-12T21:03:07.607Z,6.90
2023-05-12T21:05:41.461Z,6.70
2023-05-12T21:08:10.668Z,6.93
2023-05-12T21:10:43.549Z,7.07
2023-05-12T21:13:13.335Z,7.80
2023-05-12T21:15:41.913Z,7.37
2023-05-12T21:18:14.800Z,7.83
2023-05-12T21:20:45.302Z,8.00
2023-05-12T21:23:20.051Z,7.27
2023-05-12T21:25:55.480Z,7.70
2023-05-12T21:28:26.200Z,8.00
2023-05-12T21:31:00.648Z,7.43
2023-05-12T21:33:36.056Z,8.23
2023-05-12T21:36:04.972Z,8.13
2023-05-12T21:38:35.366Z,8.27
2023-05-12T21:41:06.961Z,8.50
2023-05-12T21:43:34.902Z,8.77
2023-05-12T21:46:06.352Z,9.27
2023-05-12T21:48:35.189Z,8.80
2023-05-12T21:51:07.176Z,9.00
2023-05-12T21:53:36.983Z,9.20
2023-05-12T21:56:05.661Z,9.40
2023-05-12T21:58:36.360Z,8.93
2023-05-12T22:01:07.384Z,8.93
2023-05-12T22:03:38.887Z,8.67
2023-05-12T22:06:13.369Z,8.43
2023-05-12T22:08:42.824Z,8.70
2023-05-12T22:13:55.685Z,9.53
2023-05-12T22:16:31.118Z,9.50
2023-05-12T22:19:16.232Z,8.80
2023-05-12T22:21:50.086Z,10.10
2023-05-12T22:24:18.724Z,9.83
2023-05-12T22:26:47.242Z,9.70
2023-05-12T22:29:26.548Z,10.13
2023-05-12T22:32:01.001Z,10.03
2023-05-12T22:45:16.277Z,10.40
2023-05-12T22:47:53.969Z,9.93
2023-05-12T22:50:25.874Z,10.97
2023-05-12T22:55:40.974Z,10.77
2023-05-12T23:00:52.185Z,9.93
2023-05-12T23:03:21.386Z,9.97
2023-05-12T23:08:32.552Z,9.83
2023-05-12T23:11:04.949Z,9.93
2023-05-12T23:13:40.986Z,8.77
2023-05-12T23:16:13.118Z,10.10
2023-05-12T23:18:45.269Z,9.57
2023-05-12T23:21:26.576Z,8.63
2023-05-12T23:23:56.552Z,9.37
2023-05-12T23:26:26.172Z,9.70
2023-05-12T23:28:57.283Z,9.60
2023-05-12T23:31:38.057Z,8.70
2023-05-12T23:34:06.244Z,9.13
2023-05-12T23:39:49.559Z,9.00
2023-05-12T23:45:00.673Z,10.07
2023-05-12T23:47:32.898Z,9.37
2023-05-12T23:50:13.358Z,10.40
2023-05-12T23:52:45.052Z,10.30
2023-05-12T23:57:58.934Z,9.97
